createdAt,value
2018-12-31T00:02:09.885Z,100193.39
2018-12-31T00:04:41.258Z,100193.39
2018-12-31T00:07:12.505Z,100199.20
2018-12-31T00:09:44.692Z,100210.13
2018-12-31T00:12:16.081Z,100219.11
2018-12-31T00:14:47.478Z,100217.53
2018-12-31T00:17:19.143Z,100211.48
2018-12-31T00:19:50.846Z,100217.97
2018-12-31T00:22:22.309Z,100217.97
2018-12-31T00:24:53.509Z,100223.57
2018-12-31T00:27:25.258Z,100232.61
2018-12-31T00:29:56.628Z,100242.91
2018-12-31T00:32:28.179Z,100246.37
2018-12-31T00:34:59.477Z,100246.37
2018-12-31T00:37:31.000Z,100248.08
2018-12-31T00:40:03.156Z,100258.36
2018-12-31T00:42:34.647Z,100255.34
2018-12-31T00:45:06.696Z,100255.33
2018-12-31T00:47:38.196Z,100260.48
2018-12-31T00:50:09.445Z,100260.48
2018-12-31T00:52:40.839Z,100261.50
2018-12-31T00:55:12.290Z,100252.47
2018-12-31T00:57:43.531Z,100256.76
2018-12-31T01:00:14.781Z,100253.19
2018-12-31T01:02:46.307Z,100253.19
2018-12-31T01:05:17.475Z,100251.95
2018-12-31T01:07:49.281Z,100251.95
2018-12-31T01:10:21.499Z,100251.95
2018-12-31T01:12:52.826Z,100253.67
2018-12-31T01:15:24.360Z,100253.67
2018-12-31T01:17:55.878Z,100260.52
2018-12-31T01:20:27.391Z,100260.52
2018-12-31T01:22:59.023Z,100276.28
2018-12-31T01:25:30.273Z,100276.28
2018-12-31T01:28:01.913Z,100278.02
2018-12-31T01:30:33.219Z,100273.58
2018-12-31T01:33:04.432Z,100292.98
2018-12-31T01:35:35.892Z,100294.33
2018-12-31T01:38:07.184Z,100289.22
2018-12-31T01:40:39.372Z,100289.22
2018-12-31T01:43:10.693Z,100296.55
2018-12-31T01:45:42.306Z,100296.55
2018-12-31T01:48:13.529Z,100298.29
2018-12-31T01:50:44.795Z,100298.29
2018-12-31T01:53:16.370Z,100309.87
2018-12-31T01:55:47.702Z,100309.87
2018-12-31T01:58:19.176Z,100317.98
2018-12-31T02:00:50.379Z,100317.98
2018-12-31T02:03:21.631Z,100322.30
2018-12-31T02:05:53.131Z,100330.53
2018-12-31T02:08:24.669Z,100330.53
2018-12-31T02:10:56.678Z,100330.55
2018-12-31T02:13:28.012Z,100330.55
2018-12-31T02:15:59.142Z,100343.47
2018-12-31T02:18:30.592Z,100342.56
2018-12-31T02:21:01.951Z,100342.55
2018-12-31T02:23:33.247Z,100357.16
2018-12-31T02:26:04.431Z,100352.36
2018-12-31T02:28:35.883Z,100352.36
2018-12-31T02:31:07.673Z,100355.43
2018-12-31T02:33:39.099Z,100357.47
2018-12-31T02:36:10.772Z,100369.59
2018-12-31T02:38:42.121Z,100370.75
2018-12-31T02:41:13.986Z,100370.75
2018-12-31T02:43:45.498Z,100381.05
2018-12-31T02:46:16.995Z,100381.05
2018-12-31T02:48:48.175Z,100379.08
2018-12-31T02:51:19.814Z,100368.95
2018-12-31T02:53:51.020Z,100379.71
2018-12-31T02:56:22.486Z,100375.02
2018-12-31T02:58:53.690Z,100382.97
2018-12-31T03:01:25.241Z,100384.20
2018-12-31T03:03:56.763Z,100384.20
2018-12-31T03:06:28.088Z,100399.87
2018-12-31T03:08:59.290Z,100399.87
2018-12-31T03:11:30.991Z,100390.21
2018-12-31T03:14:02.199Z,100396.72
2018-12-31T03:16:33.482Z,100396.72
2018-12-31T03:19:04.719Z,100393.20
2018-12-31T03:21:35.966Z,100408.70
2018-12-31T03:24:07.192Z,100408.70
2018-12-31T03:26:38.435Z,100412.59
2018-12-31T03:29:10.092Z,100412.59
2018-12-31T03:31:41.132Z,100422.69
2018-12-31T03:34:12.390Z,100437.28
2018-12-31T03:36:45.047Z,100437.28
2018-12-31T03:39:16.574Z,100439.02
2018-12-31T03:41:48.265Z,100439.02
2018-12-31T03:44:19.541Z,100451.88
2018-12-31T03:46:50.863Z,100450.95
2018-12-31T03:49:22.107Z,100453.55
2018-12-31T03:51:53.642Z,100461.77
2018-12-31T03:54:25.048Z,100459.59
2018-12-31T03:56:56.255Z,100454.39
2018-12-31T03:59:27.697Z,100459.59
2018-12-31T04:01:59.169Z,100463.48
2018-12-31T04:04:30.781Z,100458.61
2018-12-31T04:07:02.539Z,100458.61
2018-12-31T04:09:34.999Z,100465.84
2018-12-31T04:12:07.173Z,100465.84
2018-12-31T04:14:38.711Z,100464.56
2018-12-31T04:17:09.979Z,100464.56
2018-12-31T04:19:41.344Z,100464.45
2018-12-31T04:22:13.080Z,100461.90
2018-12-31T04:24:44.652Z,100457.08
2018-12-31T04:27:16.079Z,100457.08
2018-12-31T04:29:47.759Z,100457.85
2018-12-31T04:32:19.112Z,100452.48
2018-12-31T04:34:50.455Z,100455.09
2018-12-31T04:37:21.781Z,100455.09
2018-12-31T04:39:53.323Z,100449.64
2018-12-31T04:42:24.998Z,100455.02
2018-12-31T04:44:56.287Z,100446.33
2018-12-31T04:47:27.763Z,100446.33
2018-12-31T04:49:59.328Z,100447.13
2018-12-31T04:52:30.579Z,100455.49
2018-12-31T04:55:02.186Z,100448.90
2018-12-31T04:57:33.483Z,100452.80
2018-12-31T05:00:05.285Z,100448.36
2018-12-31T05:02:36.900Z,100438.80
2018-12-31T05:05:08.271Z,100436.08
2018-12-31T05:07:39.442Z,100434.34
2018-12-31T05:10:11.259Z,100434.34
2018-12-31T05:12:43.089Z,100434.18
2018-12-31T05:15:14.857Z,100436.92
2018-12-31T05:17:46.614Z,100424.25
2018-12-31T05:20:19.039Z,100424.25
2018-12-31T05:22:50.584Z,100418.50
2018-12-31T05:25:21.947Z,100415.48
2018-12-31T05:27:53.273Z,100407.77
2018-12-31T05:30:25.224Z,100402.69
2018-12-31T05:32:56.656Z,100405.33
2018-12-31T05:35:28.206Z,100400.48
2018-12-31T05:37:59.920Z,100400.48
2018-12-31T05:40:31.567Z,100398.72
2018-12-31T05:43:03.388Z,100393.91
2018-12-31T05:45:35.052Z,100384.72
2018-12-31T05:48:06.700Z,100384.72
2018-12-31T05:50:38.270Z,100379.31
2018-12-31T05:53:10.027Z,100384.23
2018-12-31T05:55:41.675Z,100384.23
2018-12-31T05:58:12.999Z,100381.30
2018-12-31T06:00:44.655Z,100367.31
2018-12-31T06:03:16.203Z,100376.52
2018-12-31T06:05:47.951Z,100376.52
2018-12-31T06:08:19.477Z,100364.83
2018-12-31T06:10:51.009Z,100359.39
2018-12-31T06:13:22.995Z,100348.59
2018-12-31T06:15:55.048Z,100347.41
2018-12-31T06:18:26.752Z,100333.31
2018-12-31T06:20:58.973Z,100326.73
2018-12-31T06:23:30.385Z,100336.10
2018-12-31T06:26:02.046Z,100331.56
2018-12-31T06:28:33.542Z,100330.80
2018-12-31T06:31:05.152Z,100330.80
2018-12-31T06:33:36.663Z,100319.56
2018-12-31T06:36:08.040Z,100316.62
2018-12-31T06:38:39.725Z,100302.07
2018-12-31T06:41:11.212Z,100298.92
2018-12-31T06:43:43.266Z,100290.70
2018-12-31T06:46:14.663Z,100297.78
2018-12-31T06:48:46.699Z,100297.78
2018-12-31T06:51:18.323Z,100295.34
2018-12-31T06:53:49.893Z,100281.52
2018-12-31T06:56:21.663Z,100272.67
2018-12-31T06:58:53.218Z,100269.16
2018-12-31T07:01:24.443Z,100269.16
2018-12-31T07:03:56.095Z,100264.91
2018-12-31T07:06:27.845Z,100264.91
2018-12-31T07:08:59.355Z,100258.29
2018-12-31T07:11:31.223Z,100254.32
2018-12-31T07:14:03.323Z,100254.32
2018-12-31T07:16:34.675Z,100248.20
2018-12-31T07:19:06.050Z,100240.10
2018-12-31T07:21:37.337Z,100240.10
2018-12-31T07:24:08.940Z,100224.05
2018-12-31T07:26:40.497Z,100224.05
2018-12-31T07:29:11.828Z,100218.61
2018-12-31T07:31:44.355Z,100211.92
2018-12-31T07:34:15.551Z,100211.92
2018-12-31T07:36:46.843Z,100200.05
2018-12-31T07:39:18.366Z,100200.05
2018-12-31T07:41:49.744Z,100185.00
2018-12-31T07:44:21.689Z,100185.00
2018-12-31T07:46:53.414Z,100181.55
2018-12-31T07:49:25.246Z,100181.55
2018-12-31T07:51:56.605Z,100179.96
2018-12-31T07:54:28.132Z,100175.52
2018-12-31T07:57:00.348Z,100155.77
2018-12-31T07:59:31.573Z,100155.77
2018-12-31T08:02:02.917Z,100148.83
2018-12-31T08:04:34.345Z,100148.83
2018-12-31T08:07:05.653Z,100152.18
2018-12-31T08:09:37.013Z,100135.15
2018-12-31T08:12:08.477Z,100135.53
2018-12-31T08:14:40.364Z,100135.25
2018-12-31T08:17:11.753Z,100135.25
2018-12-31T08:19:43.332Z,100125.02
2018-12-31T08:22:15.077Z,100116.53
2018-12-31T08:24:46.863Z,100106.83
2018-12-31T08:27:18.125Z,100106.83
2018-12-31T08:29:49.572Z,100101.77
2018-12-31T08:32:21.703Z,100102.09
2018-12-31T08:34:53.626Z,100099.55
2018-12-31T08:37:25.683Z,100098.20
2018-12-31T08:39:58.036Z,100093.34
2018-12-31T08:42:29.679Z,100094.29
2018-12-31T08:45:01.518Z,100082.61
2018-12-31T08:47:33.117Z,100086.02
2018-12-31T08:50:04.674Z,100079.32
2018-12-31T08:52:36.105Z,100079.32
2018-12-31T08:55:07.832Z,100074.11
2018-12-31T08:57:39.659Z,100071.11
2018-12-31T09:00:11.446Z,100071.11
2018-12-31T09:02:42.665Z,100076.84
2018-12-31T09:05:14.367Z,100074.36
2018-12-31T09:07:46.862Z,100079.80
2018-12-31T09:10:18.167Z,100075.83
2018-12-31T09:12:49.114Z,100076.95
2018-12-31T09:15:21.010Z,100076.67
2018-12-31T09:17:52.173Z,100076.92
2018-12-31T09:20:24.185Z,100073.64
2018-12-31T09:22:55.372Z,100073.27
2018-12-31T09:25:26.678Z,100072.16
2018-12-31T09:27:58.026Z,100076.09
2018-12-31T09:30:29.797Z,100076.09
2018-12-31T09:33:01.281Z,100067.79
2018-12-31T09:35:32.709Z,100067.79
2018-12-31T09:38:04.005Z,100069.72
2018-12-31T09:40:35.351Z,100067.70
2018-12-31T09:43:06.488Z,100067.70
2018-12-31T09:45:38.535Z,100071.30
2018-12-31T09:48:09.712Z,100072.07
2018-12-31T09:50:41.611Z,100072.07
2018-12-31T09:53:12.868Z,100066.34
2018-12-31T09:55:44.322Z,100068.55
2018-12-31T09:58:15.741Z,100066.53
2018-12-31T10:00:47.200Z,100070.72
2018-12-31T10:03:18.328Z,100070.72
2018-12-31T10:05:49.536Z,100069.73
2018-12-31T10:08:20.777Z,100074.41
2018-12-31T10:10:52.242Z,100074.41
2018-12-31T10:13:23.442Z,100074.84
2018-12-31T10:15:57.710Z,100074.84
2018-12-31T10:18:29.032Z,100077.73
2018-12-31T10:21:00.859Z,100082.77
2018-12-31T10:23:32.093Z,100080.48
2018-12-31T10:26:03.393Z,100080.48
2018-12-31T10:28:34.650Z,100082.46
2018-12-31T10:31:06.483Z,100081.59
2018-12-31T10:33:38.335Z,100086.20
2018-12-31T10:36:10.809Z,100084.48
2018-12-31T10:38:42.881Z,100082.06
2018-12-31T10:41:14.269Z,100082.06
2018-12-31T10:43:45.413Z,100081.59
2018-12-31T10:46:17.322Z,100075.13
2018-12-31T10:48:48.912Z,100077.30
2018-12-31T10:51:20.337Z,100080.48
2018-12-31T10:53:51.936Z,100077.65
2018-12-31T10:56:23.804Z,100077.06
2018-12-31T10:58:55.460Z,100077.06
2018-12-31T11:01:28.371Z,100081.42
2018-12-31T11:03:59.451Z,100087.22
2018-12-31T11:06:31.122Z,100087.22
2018-12-31T11:09:02.324Z,100086.10
2018-12-31T11:11:34.338Z,100086.10
2018-12-31T11:14:05.398Z,100085.25
2018-12-31T11:16:37.554Z,100085.51
2018-12-31T11:19:08.990Z,100086.59
2018-12-31T11:21:40.755Z,100086.59
2018-12-31T11:24:12.816Z,100089.02
2018-12-31T11:26:44.468Z,100086.69
2018-12-31T11:29:15.934Z,100092.48
2018-12-31T11:31:47.248Z,100095.78
2018-12-31T11:34:19.178Z,100100.55
2018-12-31T11:36:50.877Z,100091.01
2018-12-31T11:39:22.298Z,100095.45
2018-12-31T11:41:53.790Z,100090.23
2018-12-31T11:44:25.083Z,100093.57
2018-12-31T11:46:57.345Z,100093.62
2018-12-31T11:49:28.536Z,100096.54
2018-12-31T11:52:00.060Z,100096.13
2018-12-31T11:54:31.519Z,100095.78
2018-12-31T11:57:03.236Z,100098.43
2018-12-31T11:59:34.392Z,100098.06
2018-12-31T12:02:06.165Z,100098.06
2018-12-31T12:04:37.367Z,100093.21
2018-12-31T12:07:08.728Z,100099.45
2018-12-31T12:09:39.988Z,100096.89
2018-12-31T12:12:11.398Z,100096.89
2018-12-31T12:14:42.953Z,100099.91
2018-12-31T12:17:15.005Z,100108.63
2018-12-31T12:19:46.181Z,100105.98
2018-12-31T12:22:17.590Z,100110.39
2018-12-31T12:24:49.554Z,100110.39
2018-12-31T12:27:21.314Z,100111.28
2018-12-31T12:29:52.345Z,100112.27
2018-12-31T12:32:23.631Z,100118.42
2018-12-31T12:34:55.861Z,100117.98
2018-12-31T12:37:27.436Z,100117.98
2018-12-31T12:39:58.892Z,100107.26
2018-12-31T12:42:30.523Z,100117.89
2018-12-31T12:45:02.019Z,100117.89
2018-12-31T12:47:34.262Z,100113.66
2018-12-31T12:50:05.877Z,100123.36
2018-12-31T12:52:37.293Z,100125.33
2018-12-31T12:55:08.535Z,100127.00
2018-12-31T12:57:39.922Z,100127.00
2018-12-31T13:00:11.390Z,100129.16
2018-12-31T13:02:43.147Z,100130.09
2018-12-31T13:05:14.311Z,100140.17
2018-12-31T13:07:46.973Z,100132.84
2018-12-31T13:10:18.613Z,100139.61
2018-12-31T13:12:51.260Z,100139.61
2018-12-31T13:15:22.434Z,100143.92
2018-12-31T13:17:54.608Z,100142.70
2018-12-31T13:20:25.934Z,100142.70
2018-12-31T13:22:57.721Z,100146.13
2018-12-31T13:25:28.972Z,100149.30
2018-12-31T13:28:00.436Z,100149.30
2018-12-31T13:30:33.287Z,100150.23
2018-12-31T13:33:05.148Z,100157.21
2018-12-31T13:35:36.671Z,100157.21
2018-12-31T13:38:08.354Z,100164.13
2018-12-31T13:40:39.759Z,100162.54
2018-12-31T13:43:11.525Z,100162.54
2018-12-31T13:45:43.003Z,100171.95
2018-12-31T13:48:14.679Z,100180.58
2018-12-31T13:50:46.191Z,100184.42
2018-12-31T13:53:17.971Z,100184.42
2018-12-31T13:55:49.223Z,100189.27
2018-12-31T13:58:20.971Z,100184.38
2018-12-31T14:00:52.147Z,100192.61
2018-12-31T14:03:23.902Z,100186.17
2018-12-31T14:05:55.049Z,100186.17
2018-12-31T14:08:26.506Z,100187.84
2018-12-31T14:10:57.698Z,100187.84
2018-12-31T14:13:29.200Z,100189.48
2018-12-31T14:16:00.928Z,100189.48
2018-12-31T14:18:32.714Z,100198.84
2018-12-31T14:21:03.955Z,100198.84
2018-12-31T14:23:35.509Z,100205.77
2018-12-31T14:26:07.119Z,100205.77
2018-12-31T14:28:38.686Z,100194.66
2018-12-31T14:31:10.041Z,100202.65
2018-12-31T14:33:41.577Z,100203.37
2018-12-31T14:36:13.044Z,100204.41
2018-12-31T14:38:45.502Z,100202.28
2018-12-31T14:41:17.616Z,100202.59
2018-12-31T14:43:49.279Z,100202.59
2018-12-31T14:46:20.401Z,100198.34
2018-12-31T14:48:52.317Z,100202.25
2018-12-31T14:51:24.218Z,100204.86
2018-12-31T14:53:55.762Z,100205.19
2018-12-31T14:56:27.140Z,100209.55
2018-12-31T14:58:58.968Z,100209.55
2018-12-31T15:01:31.729Z,100210.47
2018-12-31T15:04:03.129Z,100207.90
2018-12-31T15:06:34.377Z,100207.90
2018-12-31T15:09:07.688Z,100213.96
2018-12-31T15:11:45.406Z,100208.75
2018-12-31T15:14:17.096Z,100208.75
2018-12-31T15:16:49.151Z,100211.45
2018-12-31T15:19:20.820Z,100216.37
2018-12-31T15:21:52.228Z,100216.37
2018-12-31T15:24:23.556Z,100221.27
2018-12-31T15:26:54.950Z,100217.88
2018-12-31T15:29:27.612Z,100217.94
2018-12-31T15:31:59.090Z,100216.23
2018-12-31T15:34:30.923Z,100216.64
2018-12-31T15:37:02.555Z,100216.64
2018-12-31T15:39:34.041Z,100214.67
2018-12-31T15:42:05.673Z,100219.40
2018-12-31T15:44:36.726Z,100219.40
2018-12-31T15:47:08.228Z,100220.77
2018-12-31T15:49:40.349Z,100232.82
2018-12-31T15:52:11.790Z,100228.83
2018-12-31T15:54:43.214Z,100225.91
2018-12-31T15:57:14.755Z,100225.91
2018-12-31T15:59:45.836Z,100226.95
2018-12-31T16:02:17.083Z,100219.14
2018-12-31T16:04:48.109Z,100219.14
2018-12-31T16:07:19.552Z,100221.08
2018-12-31T16:09:50.603Z,100221.08
2018-12-31T16:12:22.079Z,100220.41
2018-12-31T16:14:53.397Z,100212.28
2018-12-31T16:17:24.822Z,100214.95
2018-12-31T16:19:56.626Z,100217.22
2018-12-31T16:22:28.009Z,100217.22
2018-12-31T16:24:59.308Z,100216.55
2018-12-31T16:27:30.835Z,100220.59
2018-12-31T16:30:02.062Z,100218.41
2018-12-31T16:32:33.440Z,100214.95
2018-12-31T16:35:04.757Z,100214.95
2018-12-31T16:37:36.370Z,100219.73
2018-12-31T16:40:08.439Z,100216.27
2018-12-31T16:42:40.709Z,100213.80
2018-12-31T16:45:12.186Z,100213.80
2018-12-31T16:47:43.780Z,100221.89
2018-12-31T16:50:15.835Z,100221.33
2018-12-31T16:52:47.083Z,100221.33
2018-12-31T16:55:18.617Z,100218.58
2018-12-31T16:57:54.132Z,100218.58
2018-12-31T17:00:25.933Z,100222.06
2018-12-31T17:02:59.442Z,100217.69
2018-12-31T17:05:31.003Z,100217.69
2018-12-31T17:08:02.410Z,100217.69
2018-12-31T17:10:33.794Z,100217.14
2018-12-31T17:13:05.135Z,100213.86
2018-12-31T17:15:36.454Z,100213.86
2018-12-31T17:18:07.868Z,100215.77
2018-12-31T17:20:39.996Z,100215.77
2018-12-31T17:23:11.443Z,100211.84
2018-12-31T17:25:42.743Z,100213.72
2018-12-31T17:28:14.017Z,100218.03
2018-12-31T17:30:45.194Z,100213.63
2018-12-31T17:33:17.298Z,100212.42
2018-12-31T17:35:49.477Z,100206.95
2018-12-31T17:38:22.507Z,100206.95
2018-12-31T17:40:54.356Z,100211.17
2018-12-31T17:43:26.113Z,100211.17
2018-12-31T17:45:57.404Z,100214.88
2018-12-31T17:48:28.895Z,100215.81
2018-12-31T17:51:01.049Z,100216.55
2018-12-31T17:53:33.030Z,100216.55
2018-12-31T17:56:04.378Z,100223.55
2018-12-31T17:58:35.674Z,100214.84
2018-12-31T18:01:06.900Z,100221.55
2018-12-31T18:03:38.400Z,100219.75
2018-12-31T18:06:09.589Z,100216.25
2018-12-31T18:08:40.887Z,100216.25
2018-12-31T18:11:13.183Z,100210.95
2018-12-31T18:13:44.801Z,100210.95
2018-12-31T18:16:16.070Z,100215.25
2018-12-31T18:18:47.631Z,100210.30
2018-12-31T18:21:19.727Z,100210.30
2018-12-31T18:23:50.987Z,100213.52
2018-12-31T18:26:22.439Z,100214.22
2018-12-31T18:28:53.827Z,100210.66
2018-12-31T18:31:25.176Z,100211.31
2018-12-31T18:33:56.705Z,100208.14
2018-12-31T18:36:27.967Z,100205.27
2018-12-31T18:38:59.403Z,100205.27
2018-12-31T18:41:31.253Z,100201.98
2018-12-31T18:44:02.579Z,100206.77
2018-12-31T18:46:34.419Z,100202.89
2018-12-31T18:49:05.815Z,100208.29
2018-12-31T18:51:37.866Z,100202.22
2018-12-31T18:54:09.080Z,100204.81
2018-12-31T18:56:40.404Z,100198.86
2018-12-31T18:59:12.079Z,100198.86
2018-12-31T19:01:43.725Z,100194.43
2018-12-31T19:04:15.583Z,100194.43
2018-12-31T19:06:46.997Z,100188.55
2018-12-31T19:09:18.391Z,100183.19
2018-12-31T19:11:49.691Z,100183.19
2018-12-31T19:14:21.486Z,100182.84
2018-12-31T19:16:52.867Z,100189.02
2018-12-31T19:19:25.269Z,100188.70
2018-12-31T19:21:57.288Z,100184.41
2018-12-31T19:24:29.140Z,100187.95
2018-12-31T19:27:00.805Z,100179.28
2018-12-31T19:29:32.488Z,100188.81
2018-12-31T19:32:04.253Z,100185.36
2018-12-31T19:34:35.772Z,100183.72
2018-12-31T19:37:07.023Z,100177.65
2018-12-31T19:39:38.288Z,100181.56
2018-12-31T19:42:10.388Z,100181.56
2018-12-31T19:44:41.601Z,100179.28
2018-12-31T19:47:13.049Z,100181.98
2018-12-31T19:49:44.246Z,100183.34
2018-12-31T19:52:16.427Z,100183.34
2018-12-31T19:54:47.918Z,100183.86
2018-12-31T19:57:19.425Z,100178.59
2018-12-31T19:59:50.680Z,100171.64
2018-12-31T20:02:22.671Z,100176.94
2018-12-31T20:04:54.185Z,100170.05
2018-12-31T20:07:26.176Z,100171.78
2018-12-31T20:09:57.759Z,100153.67
2018-12-31T20:12:29.532Z,100155.68
2018-12-31T20:15:01.110Z,100158.84
2018-12-31T20:17:32.808Z,100152.05
2018-12-31T20:20:04.412Z,100150.31
2018-12-31T20:22:36.316Z,100160.39
2018-12-31T20:25:07.725Z,100155.32
2018-12-31T20:27:39.518Z,100155.32
2018-12-31T20:30:10.967Z,100142.61
2018-12-31T20:32:42.393Z,100151.59
2018-12-31T20:35:13.668Z,100148.19
2018-12-31T20:37:45.278Z,100157.34
2018-12-31T20:40:16.783Z,100157.34
2018-12-31T20:42:48.708Z,100148.11
2018-12-31T20:45:20.251Z,100145.74
2018-12-31T20:47:52.072Z,100139.48
2018-12-31T20:50:23.582Z,100139.48
2018-12-31T20:52:55.694Z,100136.91
2018-12-31T20:55:27.073Z,100136.91
2018-12-31T20:57:58.521Z,100135.56
2018-12-31T21:00:29.768Z,100140.87
2018-12-31T21:03:01.201Z,100140.87
2018-12-31T21:05:32.454Z,100133.66
2018-12-31T21:08:03.899Z,100138.99
2018-12-31T21:10:35.729Z,100130.06
2018-12-31T21:13:07.483Z,100130.06
2018-12-31T21:15:38.845Z,100128.32
2018-12-31T21:18:10.659Z,100123.94
2018-12-31T21:20:42.107Z,100122.60
2018-12-31T21:23:14.006Z,100124.31
2018-12-31T21:25:45.292Z,100124.31
2018-12-31T21:28:16.827Z,100122.95
2018-12-31T21:30:47.987Z,100115.27
2018-12-31T21:33:19.473Z,100120.02
2018-12-31T21:35:50.938Z,100123.08
2018-12-31T21:38:23.785Z,100116.81
2018-12-31T21:40:55.341Z,100117.90
2018-12-31T21:43:27.608Z,100124.44
2018-12-31T21:45:58.945Z,100124.44
2018-12-31T21:48:30.304Z,100125.61
2018-12-31T21:51:01.616Z,100118.75
2018-12-31T21:53:33.492Z,100118.75
2018-12-31T21:56:05.324Z,100124.93
2018-12-31T21:58:37.036Z,100124.93
2018-12-31T22:01:08.703Z,100122.75
2018-12-31T22:03:40.489Z,100120.16
2018-12-31T22:06:12.141Z,100119.75
2018-12-31T22:08:43.557Z,100119.75
2018-12-31T22:11:14.900Z,100106.90
2018-12-31T22:13:46.310Z,100106.90
2018-12-31T22:16:18.215Z,100112.78
2018-12-31T22:18:49.770Z,100116.36
2018-12-31T22:21:21.073Z,100116.36
2018-12-31T22:23:52.843Z,100114.83
2018-12-31T22:26:24.178Z,100113.86
2018-12-31T22:28:55.766Z,100116.37
2018-12-31T22:31:26.920Z,100116.37
2018-12-31T22:33:58.322Z,100106.95
2018-12-31T22:36:29.761Z,100104.71
2018-12-31T22:39:01.091Z,100105.80
2018-12-31T22:41:33.956Z,100102.84
2018-12-31T22:44:05.893Z,100102.84
2018-12-31T22:46:37.489Z,100101.98
2018-12-31T22:49:09.612Z,100101.46
2018-12-31T22:51:41.226Z,100093.69
2018-12-31T22:54:13.517Z,100093.69
2018-12-31T22:56:45.075Z,100094.25
2018-12-31T22:59:16.967Z,100091.83
2018-12-31T23:01:48.329Z,100094.87
2018-12-31T23:04:19.783Z,100094.15
2018-12-31T23:06:52.324Z,100093.34
2018-12-31T23:09:23.735Z,100093.34
2018-12-31T23:11:55.167Z,100094.72
2018-12-31T23:14:26.936Z,100094.72
2018-12-31T23:17:02.719Z,100099.48
2018-12-31T23:19:41.303Z,100097.77
2018-12-31T23:22:07.372Z,100104.05
2018-12-31T23:24:39.369Z,100103.28
2018-12-31T23:27:11.678Z,100103.24
2018-12-31T23:29:42.873Z,100103.24
2018-12-31T23:32:14.208Z,100101.87
2018-12-31T23:34:46.013Z,100101.87
2018-12-31T23:37:17.479Z,100103.18
2018-12-31T23:39:48.973Z,100100.14
2018-12-31T23:42:20.639Z,100100.14
2018-12-31T23:44:53.361Z,100090.98
2018-12-31T23:47:24.625Z,100099.70
2018-12-31T23:49:55.974Z,100099.70
2018-12-31T23:52:27.646Z,100090.86
2018-12-31T23:54:59.865Z,100090.86
2018-12-31T23:57:32.509Z,100096.27
